sensor_id;sensor_type;location;lat;lon;timestamp;P1;durP1;ratioP1;P2;durP2;ratioP2
19671;SDS011;9983;51.114;13.788;2023-03-01T00:02:06;13.27;;;9.37;;
19671;SDS011;9983;51.114;13.788;2023-03-01T00:07:06;13.33;;;7.97;;
19671;SDS011;9983;51.114;13.788;2023-03-01T00:12:07;16.17;;;8.57;;
19671;SDS011;9983;51.114;13.788;2023-03-01T00:17:07;12.30;;;8.50;;
19671;SDS011;9983;51.114;13.788;2023-03-01T00:22:08;17.10;;;9.07;;
19671;SDS011;9983;51.114;13.788;2023-03-01T00:27:08;13.50;;;8.77;;
19671;SDS011;9983;51.114;13.788;2023-03-01T00:32:08;17.00;;;9.60;;
19671;SDS011;9983;51.114;13.788;2023-03-01T00:37:08;13.00;;;8.70;;
19671;SDS011;9983;51.114;13.788;2023-03-01T00:42:09;14.30;;;8.73;;
19671;SDS011;9983;51.114;13.788;2023-03-01T00:47:09;15.30;;;8.77;;
19671;SDS011;9983;51.114;13.788;2023-03-01T00:52:09;14.23;;;9.07;;
19671;SDS011;9983;51.114;13.788;2023-03-01T00:57:09;17.60;;;8.17;;
19671;SDS011;9983;51.114;13.788;2023-03-01T01:02:10;12.80;;;8.23;;
19671;SDS011;9983;51.114;13.788;2023-03-01T01:07:10;14.30;;;8.87;;
19671;SDS011;9983;51.114;13.788;2023-03-01T01:12:10;17.23;;;9.17;;
19671;SDS011;9983;51.114;13.788;2023-03-01T01:17:10;15.77;;;9.43;;
19671;SDS011;9983;51.114;13.788;2023-03-01T01:22:11;14.40;;;8.47;;
19671;SDS011;9983;51.114;13.788;2023-03-01T01:27:11;12.07;;;7.93;;
19671;SDS011;9983;51.114;13.788;2023-03-01T01:32:11;14.67;;;8.57;;
19671;SDS011;9983;51.114;13.788;2023-03-01T01:37:11;14.40;;;8.30;;
19671;SDS011;9983;51.114;13.788;2023-03-01T01:42:14;13.80;;;7.93;;
19671;SDS011;9983;51.114;13.788;2023-03-01T01:47:17;13.20;;;8.03;;
19671;SDS011;9983;51.114;13.788;2023-03-01T01:52:24;12.27;;;8.23;;
19671;SDS011;9983;51.114;13.788;2023-03-01T01:57:31;14.57;;;8.17;;
19671;SDS011;9983;51.114;13.788;2023-03-01T02:02:36;13.60;;;7.87;;
19671;SDS011;9983;51.114;13.788;2023-03-01T02:07:38;14.93;;;8.40;;
19671;SDS011;9983;51.114;13.788;2023-03-01T02:12:39;13.10;;;8.63;;
19671;SDS011;9983;51.114;13.788;2023-03-01T02:17:40;13.63;;;8.30;;
19671;SDS011;9983;51.114;13.788;2023-03-01T02:22:40;14.70;;;8.23;;
19671;SDS011;9983;51.114;13.788;2023-03-01T02:33:09;16.40;;;8.23;;
19671;SDS011;9983;51.114;13.788;2023-03-01T02:38:09;15.80;;;8.73;;
19671;SDS011;9983;51.114;13.788;2023-03-01T02:43:09;12.07;;;8.00;;
19671;SDS011;9983;51.114;13.788;2023-03-01T02:48:12;12.97;;;8.27;;
19671;SDS011;9983;51.114;13.788;2023-03-01T02:53:23;13.17;;;6.97;;
19671;SDS011;9983;51.114;13.788;2023-03-01T02:58:32;15.00;;;8.37;;
19671;SDS011;9983;51.114;13.788;2023-03-01T03:03:40;14.53;;;8.50;;
19671;SDS011;9983;51.114;13.788;2023-03-01T03:08:41;15.53;;;8.47;;
19671;SDS011;9983;51.114;13.788;2023-03-01T03:13:41;15.73;;;9.40;;
19671;SDS011;9983;51.114;13.788;2023-03-01T03:18:47;13.50;;;8.37;;
19671;SDS011;9983;51.114;13.788;2023-03-01T03:23:48;14.83;;;9.50;;
19671;SDS011;9983;51.114;13.788;2023-03-01T03:28:48;14.10;;;8.47;;
19671;SDS011;9983;51.114;13.788;2023-03-01T03:33:48;15.90;;;8.67;;
19671;SDS011;9983;51.114;13.788;2023-03-01T03:38:49;11.77;;;8.67;;
19671;SDS011;9983;51.114;13.788;2023-03-01T03:43:49;12.77;;;8.13;;
19671;SDS011;9983;51.114;13.788;2023-03-01T03:48:49;11.13;;;7.33;;
19671;SDS011;9983;51.114;13.788;2023-03-01T03:53:50;13.37;;;8.30;;
19671;SDS011;9983;51.114;13.788;2023-03-01T03:58:50;11.50;;;7.77;;
19671;SDS011;9983;51.114;13.788;2023-03-01T04:03:50;13.33;;;8.97;;
19671;SDS011;9983;51.114;13.788;2023-03-01T04:08:54;11.73;;;7.47;;
19671;SDS011;9983;51.114;13.788;2023-03-01T04:13:59;13.93;;;8.47;;
19671;SDS011;9983;51.114;13.788;2023-03-01T04:19:00;14.97;;;8.83;;
19671;SDS011;9983;51.114;13.788;2023-03-01T04:24:00;16.53;;;9.27;;
19671;SDS011;9983;51.114;13.788;2023-03-01T04:29:02;16.53;;;9.23;;
19671;SDS011;9983;51.114;13.788;2023-03-01T04:34:03;14.03;;;8.33;;
19671;SDS011;9983;51.114;13.788;2023-03-01T04:39:03;15.07;;;9.03;;
19671;SDS011;9983;51.114;13.788;2023-03-01T04:44:11;15.37;;;8.47;;
19671;SDS011;9983;51.114;13.788;2023-03-01T04:49:12;14.60;;;8.73;;
19671;SDS011;9983;51.114;13.788;2023-03-01T04:54:12;13.27;;;8.27;;
19671;SDS011;9983;51.114;13.788;2023-03-01T04:59:13;13.33;;;8.90;;
19671;SDS011;9983;51.114;13.788;2023-03-01T05:04:13;16.23;;;8.73;;
19671;SDS011;9983;51.114;13.788;2023-03-01T05:09:13;14.57;;;9.40;;
19671;SDS011;9983;51.114;13.788;2023-03-01T05:14:14;14.80;;;8.40;;
19671;SDS011;9983;51.114;13.788;2023-03-01T05:19:14;16.67;;;9.13;;
19671;SDS011;9983;51.114;13.788;2023-03-01T05:24:22;16.93;;;9.03;;
19671;SDS011;9983;51.114;13.788;2023-03-01T05:29:23;14.37;;;9.37;;
19671;SDS011;9983;51.114;13.788;2023-03-01T05:34:25;12.90;;;7.50;;
19671;SDS011;9983;51.114;13.788;2023-03-01T05:39:27;11.43;;;7.50;;
19671;SDS011;9983;51.114;13.788;2023-03-01T05:44:29;13.87;;;7.00;;
19671;SDS011;9983;51.114;13.788;2023-03-01T05:49:29;13.90;;;8.37;;
19671;SDS011;9983;51.114;13.788;2023-03-01T05:54:30;15.20;;;9.03;;
19671;SDS011;9983;51.114;13.788;2023-03-01T05:59:30;13.67;;;7.20;;
19671;SDS011;9983;51.114;13.788;2023-03-01T06:04:30;15.37;;;7.93;;
19671;SDS011;9983;51.114;13.788;2023-03-01T06:09:30;17.00;;;7.87;;
19671;SDS011;9983;51.114;13.788;2023-03-01T06:14:31;13.70;;;7.87;;
19671;SDS011;9983;51.114;13.788;2023-03-01T06:19:31;12.85;;;7.55;;
19671;SDS011;9983;51.114;13.788;2023-03-01T06:24:31;17.60;;;9.73;;
19671;SDS011;9983;51.114;13.788;2023-03-01T06:29:33;12.20;;;8.40;;
19671;SDS011;9983;51.114;13.788;2023-03-01T06:34:33;13.53;;;7.93;;
19671;SDS011;9983;51.114;13.788;2023-03-01T06:39:33;13.50;;;8.17;;
19671;SDS011;9983;51.114;13.788;2023-03-01T06:44:34;15.40;;;8.70;;
19671;SDS011;9983;51.114;13.788;2023-03-01T06:49:34;14.07;;;8.00;;
19671;SDS011;9983;51.114;13.788;2023-03-01T06:54:34;15.43;;;9.07;;
19671;SDS011;9983;51.114;13.788;2023-03-01T06:59:34;14.63;;;9.20;;
19671;SDS011;9983;51.114;13.788;2023-03-01T07:04:35;14.43;;;8.53;;
19671;SDS011;9983;51.114;13.788;2023-03-01T07:09:35;15.30;;;8.23;;
19671;SDS011;9983;51.114;13.788;2023-03-01T07:14:35;12.83;;;8.43;;
19671;SDS011;9983;51.114;13.788;2023-03-01T07:19:35;11.87;;;7.50;;
19671;SDS011;9983;51.114;13.788;2023-03-01T07:24:36;12.77;;;8.27;;
19671;SDS011;9983;51.114;13.788;2023-03-01T07:29:36;15.00;;;9.07;;
19671;SDS011;9983;51.114;13.788;2023-03-01T07:34:36;16.77;;;9.60;;
19671;SDS011;9983;51.114;13.788;2023-03-01T07:39:37;15.80;;;10.03;;
19671;SDS011;9983;51.114;13.788;2023-03-01T07:44:37;15.20;;;10.20;;
19671;SDS011;9983;51.114;13.788;2023-03-01T07:49:37;16.03;;;9.70;;
19671;SDS011;9983;51.114;13.788;2023-03-01T07:54:38;15.20;;;9.20;;
19671;SDS011;9983;51.114;13.788;2023-03-01T07:59:38;16.13;;;9.70;;
19671;SDS011;9983;51.114;13.788;2023-03-01T08:04:39;14.73;;;10.73;;
19671;SDS011;9983;51.114;13.788;2023-03-01T08:09:39;19.17;;;12.10;;
19671;SDS011;9983;51.114;13.788;2023-03-01T08:14:39;21.23;;;11.40;;
19671;SDS011;9983;51.114;13.788;2023-03-01T08:19:39;27.65;;;15.82;;
19671;SDS011;9983;51.114;13.788;2023-03-01T08:24:40;21.33;;;14.77;;
19671;SDS011;9983;51.114;13.788;2023-03-01T08:29:40;22.60;;;14.27;;
19671;SDS011;9983;51.114;13.788;2023-03-01T08:34:40;24.58;;;16.23;;
19671;SDS011;9983;51.114;13.788;2023-03-01T08:39:41;21.75;;;14.30;;
19671;SDS011;9983;51.114;13.788;2023-03-01T08:44:41;22.08;;;14.55;;
19671;SDS011;9983;51.114;13.788;2023-03-01T08:49:41;24.05;;;14.77;;
19671;SDS011;9983;51.114;13.788;2023-03-01T08:54:41;21.98;;;14.68;;
19671;SDS011;9983;51.114;13.788;2023-03-01T08:59:42;21.52;;;14.23;;
19671;SDS011;9983;51.114;13.788;2023-03-01T09:04:42;21.88;;;13.93;;
19671;SDS011;9983;51.114;13.788;2023-03-01T09:09:42;20.52;;;13.88;;
19671;SDS011;9983;51.114;13.788;2023-03-01T09:14:43;18.95;;;13.07;;
19671;SDS011;9983;51.114;13.788;2023-03-01T09:19:43;19.92;;;13.70;;
19671;SDS011;9983;51.114;13.788;2023-03-01T09:24:43;19.40;;;13.70;;
19671;SDS011;9983;51.114;13.788;2023-03-01T09:29:44;23.80;;;14.57;;
19671;SDS011;9983;51.114;13.788;2023-03-01T09:34:44;17.45;;;12.00;;
19671;SDS011;9983;51.114;13.788;2023-03-01T09:40:04;19.60;;;13.40;;
19671;SDS011;9983;51.114;13.788;2023-03-01T09:45:13;19.60;;;13.35;;
19671;SDS011;9983;51.114;13.788;2023-03-01T09:50:22;19.25;;;13.30;;
19671;SDS011;9983;51.114;13.788;2023-03-01T09:55:29;18.42;;;12.80;;
19671;SDS011;9983;51.114;13.788;2023-03-01T10:00:37;17.35;;;13.10;;
19671;SDS011;9983;51.114;13.788;2023-03-01T10:05:43;17.48;;;11.82;;
19671;SDS011;9983;51.114;13.788;2023-03-01T10:10:50;16.98;;;11.70;;
19671;SDS011;9983;51.114;13.788;2023-03-01T10:16:03;15.07;;;11.55;;
19671;SDS011;9983;51.114;13.788;2023-03-01T10:21:13;16.00;;;11.55;;
19671;SDS011;9983;51.114;13.788;2023-03-01T10:26:26;16.77;;;11.50;;
19671;SDS011;9983;51.114;13.788;2023-03-01T10:31:45;16.95;;;12.07;;
19671;SDS011;9983;51.114;13.788;2023-03-01T10:36:49;16.02;;;11.73;;
19671;SDS011;9983;51.114;13.788;2023-03-01T10:41:52;14.63;;;11.80;;
19671;SDS011;9983;51.114;13.788;2023-03-01T10:46:59;15.07;;;12.23;;
19671;SDS011;9983;51.114;13.788;2023-03-01T10:52:10;13.93;;;11.85;;
19671;SDS011;9983;51.114;13.788;2023-03-01T10:57:31;13.65;;;12.20;;
19671;SDS011;9983;51.114;13.788;2023-03-01T11:02:39;13.65;;;11.48;;
19671;SDS011;9983;51.114;13.788;2023-03-01T11:07:46;15.48;;;11.82;;
19671;SDS011;9983;51.114;13.788;2023-03-01T11:12:48;13.20;;;11.45;;
19671;SDS011;9983;51.114;13.788;2023-03-01T11:17:50;13.25;;;11.43;;
19671;SDS011;9983;51.114;13.788;2023-03-01T11:22:52;13.07;;;11.73;;
19671;SDS011;9983;51.114;13.788;2023-03-01T11:27:54;13.25;;;11.90;;
19671;SDS011;9983;51.114;13.788;2023-03-01T11:38:39;13.00;;;11.70;;
19671;SDS011;9983;51.114;13.788;2023-03-01T12:00:11;15.45;;;13.88;;
19671;SDS011;9983;51.114;13.788;2023-03-01T12:05:43;17.05;;;14.23;;
19671;SDS011;9983;51.114;13.788;2023-03-01T12:11:07;16.85;;;13.45;;
19671;SDS011;9983;51.114;13.788;2023-03-01T12:16:35;17.83;;;15.02;;
19671;SDS011;9983;51.114;13.788;2023-03-01T12:32:35;16.52;;;13.00;;
19671;SDS011;9983;51.114;13.788;2023-03-01T12:49:08;16.10;;;11.65;;
19671;SDS011;9983;51.114;13.788;2023-03-01T12:54:22;16.08;;;12.27;;
19671;SDS011;9983;51.114;13.788;2023-03-01T12:59:35;15.73;;;11.65;;
19671;SDS011;9983;51.114;13.788;2023-03-01T13:09:55;13.68;;;10.43;;
19671;SDS011;9983;51.114;13.788;2023-03-01T13:20:24;15.05;;;10.30;;
19671;SDS011;9983;51.114;13.788;2023-03-01T13:30:58;15.70;;;11.98;;
19671;SDS011;9983;51.114;13.788;2023-03-01T13:35:58;17.02;;;12.32;;
19671;SDS011;9983;51.114;13.788;2023-03-01T13:41:00;14.77;;;11.95;;
19671;SDS011;9983;51.114;13.788;2023-03-01T13:46:01;12.98;;;10.77;;
19671;SDS011;9983;51.114;13.788;2023-03-01T13:51:08;13.50;;;12.07;;
19671;SDS011;9983;51.114;13.788;2023-03-01T13:56:15;14.45;;;12.00;;
19671;SDS011;9983;51.114;13.788;2023-03-01T14:01:24;14.27;;;11.98;;
19671;SDS011;9983;51.114;13.788;2023-03-01T14:06:28;15.65;;;12.70;;
19671;SDS011;9983;51.114;13.788;2023-03-01T14:27:23;15.35;;;11.75;;
19671;SDS011;9983;51.114;13.788;2023-03-01T14:32:28;14.80;;;11.85;;
19671;SDS011;9983;51.114;13.788;2023-03-01T14:37:32;15.93;;;11.18;;
19671;SDS011;9983;51.114;13.788;2023-03-01T14:42:35;13.52;;;10.73;;
19671;SDS011;9983;51.114;13.788;2023-03-01T14:47:36;12.80;;;10.55;;
19671;SDS011;9983;51.114;13.788;2023-03-01T14:52:42;17.40;;;11.40;;
19671;SDS011;9983;51.114;13.788;2023-03-01T14:57:50;13.38;;;11.40;;
19671;SDS011;9983;51.114;13.788;2023-03-01T15:02:52;13.40;;;11.40;;
19671;SDS011;9983;51.114;13.788;2023-03-01T15:07:54;12.23;;;10.80;;
19671;SDS011;9983;51.114;13.788;2023-03-01T15:12:56;13.35;;;10.65;;
19671;SDS011;9983;51.114;13.788;2023-03-01T15:23:23;11.70;;;9.75;;
19671;SDS011;9983;51.114;13.788;2023-03-01T15:28:29;13.18;;;10.23;;
19671;SDS011;9983;51.114;13.788;2023-03-01T15:33:33;12.85;;;9.75;;
19671;SDS011;9983;51.114;13.788;2023-03-01T15:38:36;13.10;;;9.90;;
19671;SDS011;9983;51.114;13.788;2023-03-01T15:43:53;13.02;;;8.70;;
19671;SDS011;9983;51.114;13.788;2023-03-01T15:48:58;13.32;;;9.60;;
19671;SDS011;9983;51.114;13.788;2023-03-01T15:54:01;13.52;;;9.68;;
19671;SDS011;9983;51.114;13.788;2023-03-01T15:59:04;13.30;;;8.95;;
19671;SDS011;9983;51.114;13.788;2023-03-01T16:04:05;15.02;;;9.20;;
19671;SDS011;9983;51.114;13.788;2023-03-01T16:09:05;13.23;;;8.82;;
19671;SDS011;9983;51.114;13.788;2023-03-01T16:14:06;11.73;;;8.30;;
19671;SDS011;9983;51.114;13.788;2023-03-01T16:19:06;13.77;;;8.23;;
19671;SDS011;9983;51.114;13.788;2023-03-01T16:24:06;13.63;;;8.75;;
19671;SDS011;9983;51.114;13.788;2023-03-01T16:29:07;13.93;;;10.55;;
19671;SDS011;9983;51.114;13.788;2023-03-01T16:34:07;10.13;;;7.43;;
19671;SDS011;9983;51.114;13.788;2023-03-01T16:39:08;11.80;;;7.80;;
19671;SDS011;9983;51.114;13.788;2023-03-01T16:44:09;10.40;;;7.10;;
19671;SDS011;9983;51.114;13.788;2023-03-01T16:49:09;8.95;;;6.70;;
19671;SDS011;9983;51.114;13.788;2023-03-01T16:54:09;10.48;;;6.93;;
19671;SDS011;9983;51.114;13.788;2023-03-01T16:59:10;9.70;;;6.93;;
19671;SDS011;9983;51.114;13.788;2023-03-01T17:04:11;10.88;;;6.85;;
19671;SDS011;9983;51.114;13.788;2023-03-01T17:09:11;10.70;;;6.70;;
19671;SDS011;9983;51.114;13.788;2023-03-01T17:14:12;11.30;;;7.15;;
19671;SDS011;9983;51.114;13.788;2023-03-01T17:19:12;12.23;;;6.68;;
19671;SDS011;9983;51.114;13.788;2023-03-01T17:24:17;12.52;;;7.28;;
19671;SDS011;9983;51.114;13.788;2023-03-01T17:29:17;9.93;;;6.88;;
19671;SDS011;9983;51.114;13.788;2023-03-01T17:34:17;7.78;;;6.25;;
19671;SDS011;9983;51.114;13.788;2023-03-01T17:39:18;8.38;;;6.28;;
19671;SDS011;9983;51.114;13.788;2023-03-01T17:44:27;8.65;;;5.88;;
19671;SDS011;9983;51.114;13.788;2023-03-01T17:49:27;10.02;;;6.88;;
19671;SDS011;9983;51.114;13.788;2023-03-01T17:54:29;10.00;;;6.45;;
19671;SDS011;9983;51.114;13.788;2023-03-01T17:59:29;9.45;;;6.00;;
19671;SDS011;9983;51.114;13.788;2023-03-01T18:04:32;8.73;;;6.22;;
19671;SDS011;9983;51.114;13.788;2023-03-01T18:09:32;10.98;;;6.50;;
19671;SDS011;9983;51.114;13.788;2023-03-01T18:14:32;9.82;;;6.80;;
19671;SDS011;9983;51.114;13.788;2023-03-01T18:19:33;11.47;;;6.93;;
19671;SDS011;9983;51.114;13.788;2023-03-01T18:24:34;10.52;;;6.38;;
19671;SDS011;9983;51.114;13.788;2023-03-01T18:29:35;9.65;;;6.82;;
19671;SDS011;9983;51.114;13.788;2023-03-01T18:34:36;12.07;;;6.97;;
19671;SDS011;9983;51.114;13.788;2023-03-01T18:39:37;13.18;;;6.93;;
19671;SDS011;9983;51.114;13.788;2023-03-01T18:44:38;9.75;;;6.30;;
19671;SDS011;9983;51.114;13.788;2023-03-01T18:49:38;10.30;;;6.70;;
19671;SDS011;9983;51.114;13.788;2023-03-01T18:54:38;11.55;;;7.32;;
19671;SDS011;9983;51.114;13.788;2023-03-01T18:59:39;12.02;;;6.85;;
19671;SDS011;9983;51.114;13.788;2023-03-01T19:04:40;9.30;;;6.47;;
19671;SDS011;9983;51.114;13.788;2023-03-01T19:09:40;11.60;;;7.10;;
19671;SDS011;9983;51.114;13.788;2023-03-01T19:14:41;11.75;;;7.43;;
19671;SDS011;9983;51.114;13.788;2023-03-01T19:19:41;12.63;;;8.10;;
19671;SDS011;9983;51.114;13.788;2023-03-01T19:24:41;14.02;;;7.90;;
19671;SDS011;9983;51.114;13.788;2023-03-01T19:29:42;13.10;;;8.63;;
19671;SDS011;9983;51.114;13.788;2023-03-01T19:34:42;13.32;;;9.18;;
19671;SDS011;9983;51.114;13.788;2023-03-01T19:39:42;11.02;;;6.80;;
19671;SDS011;9983;51.114;13.788;2023-03-01T19:44:42;14.90;;;8.25;;
19671;SDS011;9983;51.114;13.788;2023-03-01T19:49:43;15.30;;;8.35;;
19671;SDS011;9983;51.114;13.788;2023-03-01T19:54:43;10.90;;;8.23;;
19671;SDS011;9983;51.114;13.788;2023-03-01T19:59:44;17.17;;;9.20;;
19671;SDS011;9983;51.114;13.788;2023-03-01T20:04:45;15.25;;;9.52;;
19671;SDS011;9983;51.114;13.788;2023-03-01T20:09:45;14.40;;;8.60;;
19671;SDS011;9983;51.114;13.788;2023-03-01T20:14:45;14.25;;;8.90;;
19671;SDS011;9983;51.114;13.788;2023-03-01T20:19:47;17.35;;;10.10;;
19671;SDS011;9983;51.114;13.788;2023-03-01T20:24:47;13.50;;;9.13;;
19671;SDS011;9983;51.114;13.788;2023-03-01T20:29:48;15.55;;;8.10;;
19671;SDS011;9983;51.114;13.788;2023-03-01T20:34:48;13.80;;;8.97;;
19671;SDS011;9983;51.114;13.788;2023-03-01T20:39:48;13.03;;;8.60;;
19671;SDS011;9983;51.114;13.788;2023-03-01T20:44:49;10.55;;;7.40;;
19671;SDS011;9983;51.114;13.788;2023-03-01T20:49:49;14.00;;;8.43;;
19671;SDS011;9983;51.114;13.788;2023-03-01T20:54:50;14.98;;;8.55;;
19671;SDS011;9983;51.114;13.788;2023-03-01T20:59:51;15.53;;;9.40;;
19671;SDS011;9983;51.114;13.788;2023-03-01T21:04:52;14.35;;;9.68;;
19671;SDS011;9983;51.114;13.788;2023-03-01T21:09:52;13.33;;;8.93;;
19671;SDS011;9983;51.114;13.788;2023-03-01T21:14:52;15.75;;;9.63;;
19671;SDS011;9983;51.114;13.788;2023-03-01T21:19:53;16.87;;;10.93;;
19671;SDS011;9983;51.114;13.788;2023-03-01T21:24:53;14.50;;;8.73;;
19671;SDS011;9983;51.114;13.788;2023-03-01T21:29:53;11.93;;;7.80;;
19671;SDS011;9983;51.114;13.788;2023-03-01T21:34:54;15.13;;;9.43;;
19671;SDS011;9983;51.114;13.788;2023-03-01T21:39:54;17.67;;;9.90;;
19671;SDS011;9983;51.114;13.788;2023-03-01T21:44:56;16.15;;;9.60;;
19671;SDS011;9983;51.114;13.788;2023-03-01T21:49:56;15.23;;;9.63;;
19671;SDS011;9983;51.114;13.788;2023-03-01T21:54:56;15.18;;;9.98;;
19671;SDS011;9983;51.114;13.788;2023-03-01T22:00:00;12.03;;;7.67;;
19671;SDS011;9983;51.114;13.788;2023-03-01T22:05:01;13.53;;;8.17;;
19671;SDS011;9983;51.114;13.788;2023-03-01T22:10:01;11.15;;;8.20;;
19671;SDS011;9983;51.114;13.788;2023-03-01T22:15:01;12.03;;;7.83;;
19671;SDS011;9983;51.114;13.788;2023-03-01T22:20:02;11.37;;;7.83;;
19671;SDS011;9983;51.114;13.788;2023-03-01T22:25:02;12.05;;;7.65;;
19671;SDS011;9983;51.114;13.788;2023-03-01T22:30:07;10.90;;;7.20;;
19671;SDS011;9983;51.114;13.788;2023-03-01T22:35:10;9.23;;;6.70;;
19671;SDS011;9983;51.114;13.788;2023-03-01T22:40:11;10.97;;;6.87;;
19671;SDS011;9983;51.114;13.788;2023-03-01T22:45:11;10.07;;;6.93;;
19671;SDS011;9983;51.114;13.788;2023-03-01T22:50:11;9.97;;;6.73;;
19671;SDS011;9983;51.114;13.788;2023-03-01T22:55:13;11.07;;;6.77;;
19671;SDS011;9983;51.114;13.788;2023-03-01T23:00:13;10.27;;;6.37;;
19671;SDS011;9983;51.114;13.788;2023-03-01T23:05:14;8.97;;;5.97;;
19671;SDS011;9983;51.114;13.788;2023-03-01T23:10:14;12.53;;;7.00;;
19671;SDS011;9983;51.114;13.788;2023-03-01T23:15:15;9.60;;;6.63;;
19671;SDS011;9983;51.114;13.788;2023-03-01T23:20:15;12.93;;;6.80;;
19671;SDS011;9983;51.114;13.788;2023-03-01T23:25:16;11.50;;;6.87;;
19671;SDS011;9983;51.114;13.788;2023-03-01T23:30:16;11.87;;;7.20;;
19671;SDS011;9983;51.114;13.788;2023-03-01T23:35:17;11.80;;;7.43;;
19671;SDS011;9983;51.114;13.788;2023-03-01T23:40:17;12.77;;;7.27;;
19671;SDS011;9983;51.114;13.788;2023-03-01T23:45:19;12.07;;;7.27;;
19671;SDS011;9983;51.114;13.788;2023-03-01T23:50:19;11.33;;;6.63;;
19671;SDS011;9983;51.114;13.788;2023-03-01T23:55:20;12.03;;;7.93;;
